sensor_id;sensor_type;location;lat;lon;timestamp;P1;durP1;ratioP1;P2;durP2;ratioP2
16308;SDS011;8263;48.880;9.276;2023-04-06T00:01:00;149.05;;;137.82;;
16308;SDS011;8263;48.880;9.276;2023-04-06T00:03:28;147.77;;;136.75;;
16308;SDS011;8263;48.880;9.276;2023-04-06T00:05:55;148.80;;;137.50;;
16308;SDS011;8263;48.880;9.276;2023-04-06T00:08:21;147.75;;;136.65;;
16308;SDS011;8263;48.880;9.276;2023-04-06T00:10:48;149.50;;;138.20;;
16308;SDS011;8263;48.880;9.276;2023-04-06T00:13:15;148.60;;;137.43;;
16308;SDS011;8263;48.880;9.276;2023-04-06T00:15:42;147.27;;;136.27;;
16308;SDS011;8263;48.880;9.276;2023-04-06T00:18:08;148.90;;;137.60;;
16308;SDS011;8263;48.880;9.276;2023-04-06T00:20:37;149.20;;;137.80;;
16308;SDS011;8263;48.880;9.276;2023-04-06T00:23:03;149.73;;;138.35;;
16308;SDS011;8263;48.880;9.276;2023-04-06T00:25:30;149.70;;;138.50;;
16308;SDS011;8263;48.880;9.276;2023-04-06T00:27:57;149.68;;;138.35;;
16308;SDS011;8263;48.880;9.276;2023-04-06T00:30:23;149.95;;;138.65;;
16308;SDS011;8263;48.880;9.276;2023-04-06T00:32:50;150.15;;;138.85;;
16308;SDS011;8263;48.880;9.276;2023-04-06T00:35:16;149.75;;;138.45;;
16308;SDS011;8263;48.880;9.276;2023-04-06T00:37:45;149.90;;;138.65;;
16308;SDS011;8263;48.880;9.276;2023-04-06T00:40:12;149.02;;;137.82;;
16308;SDS011;8263;48.880;9.276;2023-04-06T00:42:39;150.40;;;139.05;;
16308;SDS011;8263;48.880;9.276;2023-04-06T00:45:06;150.20;;;138.90;;
16308;SDS011;8263;48.880;9.276;2023-04-06T00:47:33;150.07;;;138.80;;
16308;SDS011;8263;48.880;9.276;2023-04-06T00:50:00;151.07;;;139.68;;
16308;SDS011;8263;48.880;9.276;2023-04-06T00:52:26;150.88;;;139.48;;
16308;SDS011;8263;48.880;9.276;2023-04-06T00:54:55;151.18;;;139.60;;
16308;SDS011;8263;48.880;9.276;2023-04-06T00:57:22;151.13;;;139.75;;
16308;SDS011;8263;48.880;9.276;2023-04-06T00:59:48;150.82;;;139.45;;
16308;SDS011;8263;48.880;9.276;2023-04-06T01:02:15;149.80;;;138.52;;
16308;SDS011;8263;48.880;9.276;2023-04-06T01:04:41;149.52;;;138.30;;
16308;SDS011;8263;48.880;9.276;2023-04-06T01:07:08;150.85;;;139.45;;
16308;SDS011;8263;48.880;9.276;2023-04-06T01:09:35;149.68;;;138.43;;
16308;SDS011;8263;48.880;9.276;2023-04-06T01:12:03;150.38;;;139.07;;
16308;SDS011;8263;48.880;9.276;2023-04-06T01:14:29;150.30;;;139.00;;
16308;SDS011;8263;48.880;9.276;2023-04-06T01:16:57;151.35;;;139.95;;
16308;SDS011;8263;48.880;9.276;2023-04-06T01:19:24;150.63;;;139.23;;
16308;SDS011;8263;48.880;9.276;2023-04-06T01:21:50;150.52;;;139.20;;
16308;SDS011;8263;48.880;9.276;2023-04-06T01:24:19;151.57;;;140.02;;
16308;SDS011;8263;48.880;9.276;2023-04-06T01:26:46;152.27;;;140.57;;
16308;SDS011;8263;48.880;9.276;2023-04-06T01:29:12;151.05;;;139.65;;
16308;SDS011;8263;48.880;9.276;2023-04-06T01:31:40;153.75;;;142.05;;
16308;SDS011;8263;48.880;9.276;2023-04-06T01:34:06;152.13;;;140.63;;
16308;SDS011;8263;48.880;9.276;2023-04-06T01:36:33;152.57;;;140.90;;
16308;SDS011;8263;48.880;9.276;2023-04-06T01:39:00;151.45;;;139.95;;
16308;SDS011;8263;48.880;9.276;2023-04-06T01:41:28;151.30;;;139.82;;
16308;SDS011;8263;48.880;9.276;2023-04-06T01:43:56;151.82;;;140.32;;
16308;SDS011;8263;48.880;9.276;2023-04-06T01:46:23;149.70;;;138.40;;
16308;SDS011;8263;48.880;9.276;2023-04-06T01:48:49;151.85;;;140.40;;
16308;SDS011;8263;48.880;9.276;2023-04-06T01:51:16;153.43;;;141.50;;
16308;SDS011;8263;48.880;9.276;2023-04-06T01:53:42;153.18;;;141.48;;
16308;SDS011;8263;48.880;9.276;2023-04-06T01:56:10;152.98;;;141.40;;
16308;SDS011;8263;48.880;9.276;2023-04-06T01:58:39;153.10;;;141.50;;
16308;SDS011;8263;48.880;9.276;2023-04-06T02:01:05;151.52;;;140.02;;
16308;SDS011;8263;48.880;9.276;2023-04-06T02:03:32;151.40;;;140.00;;
16308;SDS011;8263;48.880;9.276;2023-04-06T02:05:59;153.70;;;142.00;;
16308;SDS011;8263;48.880;9.276;2023-04-06T02:08:25;152.25;;;140.70;;
16308;SDS011;8263;48.880;9.276;2023-04-06T02:10:52;153.23;;;141.57;;
16308;SDS011;8263;48.880;9.276;2023-04-06T02:13:18;152.68;;;141.07;;
16308;SDS011;8263;48.880;9.276;2023-04-06T02:15:47;151.90;;;140.40;;
16308;SDS011;8263;48.880;9.276;2023-04-06T02:18:13;152.18;;;140.55;;
16308;SDS011;8263;48.880;9.276;2023-04-06T02:20:40;152.27;;;140.68;;
16308;SDS011;8263;48.880;9.276;2023-04-06T02:23:07;153.88;;;142.18;;
16308;SDS011;8263;48.880;9.276;2023-04-06T02:25:34;152.70;;;141.13;;
16308;SDS011;8263;48.880;9.276;2023-04-06T02:28:00;151.98;;;140.38;;
16308;SDS011;8263;48.880;9.276;2023-04-06T02:30:28;153.88;;;141.95;;
16308;SDS011;8263;48.880;9.276;2023-04-06T02:32:58;153.88;;;141.88;;
16308;SDS011;8263;48.880;9.276;2023-04-06T02:35:24;153.50;;;141.82;;
16308;SDS011;8263;48.880;9.276;2023-04-06T02:37:51;154.35;;;142.45;;
16308;SDS011;8263;48.880;9.276;2023-04-06T02:40:17;153.63;;;141.93;;
16308;SDS011;8263;48.880;9.276;2023-04-06T02:42:45;154.00;;;142.20;;
16308;SDS011;8263;48.880;9.276;2023-04-06T02:45:11;150.95;;;139.50;;
16308;SDS011;8263;48.880;9.276;2023-04-06T02:47:38;153.32;;;141.65;;
16308;SDS011;8263;48.880;9.276;2023-04-06T02:50:07;152.93;;;141.27;;
16308;SDS011;8263;48.880;9.276;2023-04-06T02:52:34;153.88;;;142.15;;
16308;SDS011;8263;48.880;9.276;2023-04-06T02:55:01;152.88;;;141.27;;
16308;SDS011;8263;48.880;9.276;2023-04-06T02:57:28;153.88;;;142.15;;
16308;SDS011;8263;48.880;9.276;2023-04-06T02:59:54;154.48;;;142.57;;
16308;SDS011;8263;48.880;9.276;2023-04-06T03:02:21;153.90;;;142.20;;
16308;SDS011;8263;48.880;9.276;2023-04-06T03:04:47;153.45;;;141.70;;
16308;SDS011;8263;48.880;9.276;2023-04-06T03:07:15;155.07;;;143.27;;
16308;SDS011;8263;48.880;9.276;2023-04-06T03:09:42;154.80;;;142.98;;
16308;SDS011;8263;48.880;9.276;2023-04-06T03:12:09;154.95;;;143.10;;
16308;SDS011;8263;48.880;9.276;2023-04-06T03:14:36;154.93;;;143.00;;
16308;SDS011;8263;48.880;9.276;2023-04-06T03:17:02;153.35;;;141.65;;
16308;SDS011;8263;48.880;9.276;2023-04-06T03:19:29;154.85;;;143.00;;
16308;SDS011;8263;48.880;9.276;2023-04-06T03:21:56;153.07;;;141.43;;
16308;SDS011;8263;48.880;9.276;2023-04-06T03:24:24;154.20;;;142.40;;
16308;SDS011;8263;48.880;9.276;2023-04-06T03:26:51;155.40;;;143.52;;
16308;SDS011;8263;48.880;9.276;2023-04-06T03:29:17;154.40;;;142.60;;
16308;SDS011;8263;48.880;9.276;2023-04-06T03:31:44;154.45;;;142.65;;
16308;SDS011;8263;48.880;9.276;2023-04-06T03:34:11;154.50;;;142.70;;
16308;SDS011;8263;48.880;9.276;2023-04-06T03:36:38;155.52;;;143.55;;
16308;SDS011;8263;48.880;9.276;2023-04-06T03:39:04;153.75;;;142.02;;
16308;SDS011;8263;48.880;9.276;2023-04-06T03:41:33;155.95;;;143.95;;
16308;SDS011;8263;48.880;9.276;2023-04-06T03:43:59;154.10;;;142.32;;
16308;SDS011;8263;48.880;9.276;2023-04-06T03:46:26;154.65;;;142.75;;
16308;SDS011;8263;48.880;9.276;2023-04-06T03:48:52;155.15;;;143.23;;
16308;SDS011;8263;48.880;9.276;2023-04-06T03:51:19;155.10;;;143.20;;
16308;SDS011;8263;48.880;9.276;2023-04-06T03:53:45;153.30;;;141.52;;
16308;SDS011;8263;48.880;9.276;2023-04-06T03:56:12;154.52;;;142.70;;
16308;SDS011;8263;48.880;9.276;2023-04-06T03:58:40;152.50;;;140.85;;
16308;SDS011;8263;48.880;9.276;2023-04-06T04:01:07;153.95;;;142.15;;
16308;SDS011;8263;48.880;9.276;2023-04-06T04:03:33;154.55;;;142.75;;
16308;SDS011;8263;48.880;9.276;2023-04-06T04:06:00;154.00;;;142.23;;
16308;SDS011;8263;48.880;9.276;2023-04-06T04:08:26;154.18;;;142.38;;
16308;SDS011;8263;48.880;9.276;2023-04-06T04:10:53;155.57;;;143.60;;
16308;SDS011;8263;48.880;9.276;2023-04-06T04:13:20;154.38;;;142.50;;
16308;SDS011;8263;48.880;9.276;2023-04-06T04:15:47;154.93;;;143.05;;
16308;SDS011;8263;48.880;9.276;2023-04-06T04:18:16;154.65;;;142.77;;
16308;SDS011;8263;48.880;9.276;2023-04-06T04:20:42;155.48;;;143.57;;
16308;SDS011;8263;48.880;9.276;2023-04-06T04:23:09;155.50;;;143.40;;
16308;SDS011;8263;48.880;9.276;2023-04-06T04:25:36;154.63;;;142.75;;
16308;SDS011;8263;48.880;9.276;2023-04-06T04:28:03;155.95;;;143.95;;
16308;SDS011;8263;48.880;9.276;2023-04-06T04:30:30;151.23;;;139.73;;
16308;SDS011;8263;48.880;9.276;2023-04-06T04:32:58;154.45;;;142.27;;
16308;SDS011;8263;48.880;9.276;2023-04-06T04:35:26;155.90;;;143.77;;
16308;SDS011;8263;48.880;9.276;2023-04-06T04:37:52;153.93;;;142.15;;
16308;SDS011;8263;48.880;9.276;2023-04-06T04:40:19;155.43;;;143.52;;
16308;SDS011;8263;48.880;9.276;2023-04-06T04:42:46;157.30;;;144.95;;
16308;SDS011;8263;48.880;9.276;2023-04-06T04:45:12;156.23;;;143.93;;
16308;SDS011;8263;48.880;9.276;2023-04-06T04:47:39;155.55;;;143.48;;
16308;SDS011;8263;48.880;9.276;2023-04-06T04:50:08;155.38;;;143.35;;
16308;SDS011;8263;48.880;9.276;2023-04-06T04:52:36;153.52;;;141.77;;
16308;SDS011;8263;48.880;9.276;2023-04-06T04:55:03;155.23;;;143.25;;
16308;SDS011;8263;48.880;9.276;2023-04-06T04:57:29;155.13;;;143.18;;
16308;SDS011;8263;48.880;9.276;2023-04-06T04:59:56;156.48;;;144.18;;
16308;SDS011;8263;48.880;9.276;2023-04-06T05:02:23;154.82;;;142.90;;
16308;SDS011;8263;48.880;9.276;2023-04-06T05:04:49;154.68;;;142.75;;
16308;SDS011;8263;48.880;9.276;2023-04-06T05:07:18;153.13;;;141.23;;
16308;SDS011;8263;48.880;9.276;2023-04-06T05:09:45;153.77;;;141.98;;
16308;SDS011;8263;48.880;9.276;2023-04-06T05:12:12;155.10;;;143.20;;
16308;SDS011;8263;48.880;9.276;2023-04-06T05:14:39;155.90;;;143.68;;
16308;SDS011;8263;48.880;9.276;2023-04-06T05:17:05;155.80;;;143.82;;
16308;SDS011;8263;48.880;9.276;2023-04-06T05:19:32;154.85;;;142.77;;
16308;SDS011;8263;48.880;9.276;2023-04-06T05:21:59;156.25;;;144.07;;
16308;SDS011;8263;48.880;9.276;2023-04-06T05:24:27;154.57;;;142.70;;
16308;SDS011;8263;48.880;9.276;2023-04-06T05:26:54;157.48;;;145.27;;
16308;SDS011;8263;48.880;9.276;2023-04-06T05:29:20;156.18;;;144.15;;
16308;SDS011;8263;48.880;9.276;2023-04-06T05:31:47;156.32;;;144.27;;
16308;SDS011;8263;48.880;9.276;2023-04-06T05:34:14;156.63;;;144.52;;
16308;SDS011;8263;48.880;9.276;2023-04-06T05:36:41;156.20;;;144.20;;
16308;SDS011;8263;48.880;9.276;2023-04-06T05:39:07;156.50;;;144.32;;
16308;SDS011;8263;48.880;9.276;2023-04-06T05:41:35;157.63;;;145.23;;
16308;SDS011;8263;48.880;9.276;2023-04-06T05:44:02;155.40;;;143.40;;
16308;SDS011;8263;48.880;9.276;2023-04-06T05:46:29;156.55;;;144.45;;
16308;SDS011;8263;48.880;9.276;2023-04-06T05:48:56;156.55;;;144.48;;
16308;SDS011;8263;48.880;9.276;2023-04-06T05:51:23;156.50;;;144.35;;
16308;SDS011;8263;48.880;9.276;2023-04-06T05:53:50;157.95;;;145.65;;
16308;SDS011;8263;48.880;9.276;2023-04-06T05:56:17;157.35;;;145.13;;
16308;SDS011;8263;48.880;9.276;2023-04-06T05:58:45;157.63;;;145.43;;
16308;SDS011;8263;48.880;9.276;2023-04-06T06:01:12;157.63;;;145.35;;
16308;SDS011;8263;48.880;9.276;2023-04-06T06:03:40;157.80;;;145.27;;
16308;SDS011;8263;48.880;9.276;2023-04-06T06:06:07;157.23;;;145.02;;
16308;SDS011;8263;48.880;9.276;2023-04-06T06:08:34;156.80;;;144.23;;
16308;SDS011;8263;48.880;9.276;2023-04-06T06:11:01;156.98;;;144.82;;
16308;SDS011;8263;48.880;9.276;2023-04-06T06:13:28;157.25;;;144.95;;
16308;SDS011;8263;48.880;9.276;2023-04-06T06:15:56;157.27;;;145.07;;
16308;SDS011;8263;48.880;9.276;2023-04-06T06:18:22;156.05;;;144.02;;
16308;SDS011;8263;48.880;9.276;2023-04-06T06:20:51;155.38;;;143.38;;
16308;SDS011;8263;48.880;9.276;2023-04-06T06:23:18;158.50;;;146.15;;
16308;SDS011;8263;48.880;9.276;2023-04-06T06:25:44;157.00;;;144.80;;
16308;SDS011;8263;48.880;9.276;2023-04-06T06:28:11;156.93;;;144.82;;
16308;SDS011;8263;48.880;9.276;2023-04-06T06:30:38;157.45;;;145.13;;
16308;SDS011;8263;48.880;9.276;2023-04-06T06:33:06;158.02;;;145.63;;
16308;SDS011;8263;48.880;9.276;2023-04-06T06:35:33;158.10;;;145.80;;
16308;SDS011;8263;48.880;9.276;2023-04-06T06:37:59;155.73;;;143.73;;
16308;SDS011;8263;48.880;9.276;2023-04-06T06:40:26;155.73;;;143.73;;
16308;SDS011;8263;48.880;9.276;2023-04-06T06:42:53;157.65;;;145.40;;
16308;SDS011;8263;48.880;9.276;2023-04-06T06:45:19;158.10;;;145.43;;
16308;SDS011;8263;48.880;9.276;2023-04-06T06:47:46;155.93;;;143.93;;
16308;SDS011;8263;48.880;9.276;2023-04-06T06:50:14;155.27;;;143.30;;
16308;SDS011;8263;48.880;9.276;2023-04-06T06:52:41;154.45;;;142.52;;
16308;SDS011;8263;48.880;9.276;2023-04-06T06:55:08;156.50;;;144.40;;
16308;SDS011;8263;48.880;9.276;2023-04-06T06:57:35;154.10;;;142.27;;
16308;SDS011;8263;48.880;9.276;2023-04-06T07:00:02;156.30;;;144.15;;
16308;SDS011;8263;48.880;9.276;2023-04-06T07:02:30;157.13;;;144.77;;
16308;SDS011;8263;48.880;9.276;2023-04-06T07:04:56;157.20;;;144.90;;
16308;SDS011;8263;48.880;9.276;2023-04-06T07:07:24;155.05;;;143.13;;
16308;SDS011;8263;48.880;9.276;2023-04-06T07:09:51;156.52;;;144.40;;
16308;SDS011;8263;48.880;9.276;2023-04-06T07:12:18;154.95;;;143.05;;
16308;SDS011;8263;48.880;9.276;2023-04-06T07:14:44;156.75;;;144.40;;
16308;SDS011;8263;48.880;9.276;2023-04-06T07:17:11;155.07;;;143.15;;
16308;SDS011;8263;48.880;9.276;2023-04-06T07:19:38;157.93;;;145.60;;
16308;SDS011;8263;48.880;9.276;2023-04-06T07:22:04;156.50;;;144.20;;
16308;SDS011;8263;48.880;9.276;2023-04-06T07:24:33;155.90;;;143.90;;
16308;SDS011;8263;48.880;9.276;2023-04-06T07:26:59;155.93;;;143.93;;
16308;SDS011;8263;48.880;9.276;2023-04-06T07:29:26;155.27;;;143.27;;
16308;SDS011;8263;48.880;9.276;2023-04-06T07:31:53;154.15;;;142.23;;
16308;SDS011;8263;48.880;9.276;2023-04-06T07:34:20;155.30;;;143.32;;
16308;SDS011;8263;48.880;9.276;2023-04-06T07:36:46;156.27;;;144.18;;
16308;SDS011;8263;48.880;9.276;2023-04-06T07:39:13;155.13;;;143.20;;
16308;SDS011;8263;48.880;9.276;2023-04-06T07:41:41;155.55;;;143.63;;
16308;SDS011;8263;48.880;9.276;2023-04-06T07:44:08;155.07;;;142.98;;
16308;SDS011;8263;48.880;9.276;2023-04-06T07:46:34;154.07;;;142.23;;
16308;SDS011;8263;48.880;9.276;2023-04-06T07:49:01;153.52;;;141.82;;
16308;SDS011;8263;48.880;9.276;2023-04-06T07:51:28;153.85;;;142.15;;
16308;SDS011;8263;48.880;9.276;2023-04-06T07:53:54;153.60;;;141.80;;
16308;SDS011;8263;48.880;9.276;2023-04-06T07:56:21;152.82;;;141.23;;
16308;SDS011;8263;48.880;9.276;2023-04-06T07:58:49;153.60;;;141.65;;
16308;SDS011;8263;48.880;9.276;2023-04-06T08:01:16;152.98;;;141.38;;
16308;SDS011;8263;48.880;9.276;2023-04-06T08:03:42;151.95;;;140.45;;
16308;SDS011;8263;48.880;9.276;2023-04-06T08:06:09;151.25;;;139.75;;
16308;SDS011;8263;48.880;9.276;2023-04-06T08:08:35;151.85;;;140.38;;
16308;SDS011;8263;48.880;9.276;2023-04-06T08:11:02;151.48;;;139.93;;
16308;SDS011;8263;48.880;9.276;2023-04-06T08:13:28;150.73;;;139.32;;
16308;SDS011;8263;48.880;9.276;2023-04-06T08:15:57;151.10;;;139.70;;
16308;SDS011;8263;48.880;9.276;2023-04-06T08:18:23;150.43;;;139.02;;
16308;SDS011;8263;48.880;9.276;2023-04-06T08:20:50;149.07;;;137.88;;
16308;SDS011;8263;48.880;9.276;2023-04-06T08:23:16;149.30;;;138.00;;
16308;SDS011;8263;48.880;9.276;2023-04-06T08:25:43;149.40;;;138.13;;
16308;SDS011;8263;48.880;9.276;2023-04-06T08:28:10;149.48;;;138.05;;
16308;SDS011;8263;48.880;9.276;2023-04-06T08:30:37;148.57;;;137.35;;
16308;SDS011;8263;48.880;9.276;2023-04-06T08:33:07;147.65;;;136.57;;
16308;SDS011;8263;48.880;9.276;2023-04-06T08:35:33;149.82;;;138.43;;
16308;SDS011;8263;48.880;9.276;2023-04-06T08:38:00;147.88;;;136.45;;
16308;SDS011;8263;48.880;9.276;2023-04-06T08:40:27;147.77;;;136.63;;
16308;SDS011;8263;48.880;9.276;2023-04-06T08:42:54;147.18;;;136.07;;
16308;SDS011;8263;48.880;9.276;2023-04-06T08:45:21;146.10;;;135.23;;
16308;SDS011;8263;48.880;9.276;2023-04-06T08:47:48;144.85;;;134.10;;
16308;SDS011;8263;48.880;9.276;2023-04-06T08:50:18;146.38;;;135.50;;
16308;SDS011;8263;48.880;9.276;2023-04-06T08:52:46;145.07;;;134.07;;
16308;SDS011;8263;48.880;9.276;2023-04-06T08:55:13;145.40;;;134.70;;
16308;SDS011;8263;48.880;9.276;2023-04-06T08:57:39;144.18;;;133.50;;
16308;SDS011;8263;48.880;9.276;2023-04-06T09:00:07;145.55;;;134.80;;
16308;SDS011;8263;48.880;9.276;2023-04-06T09:02:36;144.63;;;133.70;;
16308;SDS011;8263;48.880;9.276;2023-04-06T09:05:04;144.55;;;133.73;;
16308;SDS011;8263;48.880;9.276;2023-04-06T09:07:33;144.00;;;133.30;;
16308;SDS011;8263;48.880;9.276;2023-04-06T09:09:59;144.10;;;133.43;;
16308;SDS011;8263;48.880;9.276;2023-04-06T09:12:28;142.38;;;131.77;;
16308;SDS011;8263;48.880;9.276;2023-04-06T09:14:56;142.82;;;132.32;;
16308;SDS011;8263;48.880;9.276;2023-04-06T09:17:23;142.93;;;132.48;;
16308;SDS011;8263;48.880;9.276;2023-04-06T09:19:50;141.25;;;130.93;;
16308;SDS011;8263;48.880;9.276;2023-04-06T09:22:17;142.35;;;131.63;;
16308;SDS011;8263;48.880;9.276;2023-04-06T09:24:46;140.60;;;130.27;;
16308;SDS011;8263;48.880;9.276;2023-04-06T09:27:13;141.00;;;130.60;;
16308;SDS011;8263;48.880;9.276;2023-04-06T09:29:40;141.50;;;131.00;;
16308;SDS011;8263;48.880;9.276;2023-04-06T09:32:07;142.23;;;131.15;;
16308;SDS011;8263;48.880;9.276;2023-04-06T09:34:36;141.30;;;130.70;;
16308;SDS011;8263;48.880;9.276;2023-04-06T09:37:11;138.02;;;127.90;;
16308;SDS011;8263;48.880;9.276;2023-04-06T09:39:38;141.95;;;131.25;;
16308;SDS011;8263;48.880;9.276;2023-04-06T09:42:07;140.15;;;129.73;;
16308;SDS011;8263;48.880;9.276;2023-04-06T09:44:34;139.27;;;129.05;;
16308;SDS011;8263;48.880;9.276;2023-04-06T09:47:01;138.23;;;128.23;;
16308;SDS011;8263;48.880;9.276;2023-04-06T09:49:30;138.55;;;128.30;;
16308;SDS011;8263;48.880;9.276;2023-04-06T09:51:58;138.38;;;128.25;;
16308;SDS011;8263;48.880;9.276;2023-04-06T09:54:26;137.40;;;127.32;;
16308;SDS011;8263;48.880;9.276;2023-04-06T09:56:56;135.63;;;125.95;;
16308;SDS011;8263;48.880;9.276;2023-04-06T09:59:28;135.30;;;125.53;;
16308;SDS011;8263;48.880;9.276;2023-04-06T10:01:58;134.10;;;124.50;;
16308;SDS011;8263;48.880;9.276;2023-04-06T10:04:28;135.18;;;125.30;;
16308;SDS011;8263;48.880;9.276;2023-04-06T10:06:57;135.10;;;125.45;;
16308;SDS011;8263;48.880;9.276;2023-04-06T10:09:25;134.38;;;124.68;;
16308;SDS011;8263;48.880;9.276;2023-04-06T10:12:00;135.07;;;124.93;;
16308;SDS011;8263;48.880;9.276;2023-04-06T10:14:29;131.98;;;122.55;;
16308;SDS011;8263;48.880;9.276;2023-04-06T10:16:55;132.43;;;123.03;;
16308;SDS011;8263;48.880;9.276;2023-04-06T10:19:24;129.57;;;120.22;;
16308;SDS011;8263;48.880;9.276;2023-04-06T10:21:53;132.63;;;123.28;;
16308;SDS011;8263;48.880;9.276;2023-04-06T10:24:21;130.45;;;121.35;;
16308;SDS011;8263;48.880;9.276;2023-04-06T10:26:57;131.82;;;122.53;;
16308;SDS011;8263;48.880;9.276;2023-04-06T10:29:23;129.30;;;120.28;;
16308;SDS011;8263;48.880;9.276;2023-04-06T10:31:52;130.77;;;121.55;;
16308;SDS011;8263;48.880;9.276;2023-04-06T10:34:20;132.38;;;123.00;;
16308;SDS011;8263;48.880;9.276;2023-04-06T10:36:47;129.18;;;120.18;;
16308;SDS011;8263;48.880;9.276;2023-04-06T10:39:13;128.80;;;119.80;;
16308;SDS011;8263;48.880;9.276;2023-04-06T10:41:41;130.27;;;120.97;;
16308;SDS011;8263;48.880;9.276;2023-04-06T10:44:07;130.50;;;121.20;;
16308;SDS011;8263;48.880;9.276;2023-04-06T10:46:34;128.25;;;119.28;;
16308;SDS011;8263;48.880;9.276;2023-04-06T10:49:12;127.57;;;118.57;;
16308;SDS011;8263;48.880;9.276;2023-04-06T10:51:38;129.77;;;120.55;;
16308;SDS011;8263;48.880;9.276;2023-04-06T10:54:07;127.82;;;118.75;;
16308;SDS011;8263;48.880;9.276;2023-04-06T10:56:36;125.78;;;116.95;;
16308;SDS011;8263;48.880;9.276;2023-04-06T10:59:03;128.55;;;118.88;;
16308;SDS011;8263;48.880;9.276;2023-04-06T11:01:31;126.18;;;117.40;;
16308;SDS011;8263;48.880;9.276;2023-04-06T11:03:58;126.32;;;117.43;;
16308;SDS011;8263;48.880;9.276;2023-04-06T11:06:27;126.28;;;117.57;;
16308;SDS011;8263;48.880;9.276;2023-04-06T11:08:55;123.55;;;114.82;;
16308;SDS011;8263;48.880;9.276;2023-04-06T11:11:22;125.25;;;116.55;;
16308;SDS011;8263;48.880;9.276;2023-04-06T11:13:50;126.63;;;117.70;;
16308;SDS011;8263;48.880;9.276;2023-04-06T11:16:18;125.45;;;116.68;;
16308;SDS011;8263;48.880;9.276;2023-04-06T11:18:48;126.25;;;117.47;;
16308;SDS011;8263;48.880;9.276;2023-04-06T11:21:15;123.65;;;114.95;;
16308;SDS011;8263;48.880;9.276;2023-04-06T11:23:43;125.55;;;116.68;;
16308;SDS011;8263;48.880;9.276;2023-04-06T11:26:10;124.90;;;116.05;;
16308;SDS011;8263;48.880;9.276;2023-04-06T11:28:37;123.05;;;114.40;;
16308;SDS011;8263;48.880;9.276;2023-04-06T11:31:04;124.10;;;115.35;;
16308;SDS011;8263;48.880;9.276;2023-04-06T11:33:35;125.53;;;116.78;;
16308;SDS011;8263;48.880;9.276;2023-04-06T11:36:01;122.43;;;114.13;;
16308;SDS011;8263;48.880;9.276;2023-04-06T11:38:28;123.43;;;114.80;;
16308;SDS011;8263;48.880;9.276;2023-04-06T11:40:56;122.10;;;113.70;;
16308;SDS011;8263;48.880;9.276;2023-04-06T11:43:25;123.57;;;114.88;;
16308;SDS011;8263;48.880;9.276;2023-04-06T11:45:58;124.03;;;115.50;;
16308;SDS011;8263;48.880;9.276;2023-04-06T11:48:25;122.38;;;113.97;;
16308;SDS011;8263;48.880;9.276;2023-04-06T11:50:55;121.95;;;113.28;;
16308;SDS011;8263;48.880;9.276;2023-04-06T11:53:21;122.35;;;113.95;;
16308;SDS011;8263;48.880;9.276;2023-04-06T11:55:51;123.90;;;115.20;;
16308;SDS011;8263;48.880;9.276;2023-04-06T11:58:19;122.47;;;114.00;;
16308;SDS011;8263;48.880;9.276;2023-04-06T12:00:46;121.32;;;112.65;;
16308;SDS011;8263;48.880;9.276;2023-04-06T12:03:12;122.18;;;113.47;;
16308;SDS011;8263;48.880;9.276;2023-04-06T12:05:39;120.85;;;112.47;;
16308;SDS011;8263;48.880;9.276;2023-04-06T12:08:06;121.00;;;112.72;;
16308;SDS011;8263;48.880;9.276;2023-04-06T12:10:33;120.90;;;112.50;;
16308;SDS011;8263;48.880;9.276;2023-04-06T12:12:59;119.95;;;111.40;;
16308;SDS011;8263;48.880;9.276;2023-04-06T12:15:28;120.38;;;112.05;;
16308;SDS011;8263;48.880;9.276;2023-04-06T12:17:54;118.78;;;110.10;;
16308;SDS011;8263;48.880;9.276;2023-04-06T12:20:21;119.80;;;111.45;;
16308;SDS011;8263;48.880;9.276;2023-04-06T12:22:48;119.90;;;111.50;;
16308;SDS011;8263;48.880;9.276;2023-04-06T12:25:14;119.32;;;111.10;;
16308;SDS011;8263;48.880;9.276;2023-04-06T12:27:41;120.75;;;112.45;;
16308;SDS011;8263;48.880;9.276;2023-04-06T12:30:08;120.43;;;112.03;;
16308;SDS011;8263;48.880;9.276;2023-04-06T12:32:36;119.90;;;111.70;;
16308;SDS011;8263;48.880;9.276;2023-04-06T12:35:03;117.68;;;109.63;;
16308;SDS011;8263;48.880;9.276;2023-04-06T12:37:30;118.22;;;110.15;;
16308;SDS011;8263;48.880;9.276;2023-04-06T12:39:57;117.85;;;109.82;;
16308;SDS011;8263;48.880;9.276;2023-04-06T12:42:26;119.07;;;110.95;;
16308;SDS011;8263;48.880;9.276;2023-04-06T12:44:52;118.13;;;109.97;;
16308;SDS011;8263;48.880;9.276;2023-04-06T12:47:19;119.85;;;111.00;;
16308;SDS011;8263;48.880;9.276;2023-04-06T12:49:47;117.07;;;109.10;;
16308;SDS011;8263;48.880;9.276;2023-04-06T12:52:13;117.93;;;109.95;;
16308;SDS011;8263;48.880;9.276;2023-04-06T12:54:41;116.38;;;108.47;;
16308;SDS011;8263;48.880;9.276;2023-04-06T12:57:08;118.65;;;110.63;;
16308;SDS011;8263;48.880;9.276;2023-04-06T12:59:34;117.03;;;108.80;;
16308;SDS011;8263;48.880;9.276;2023-04-06T13:02:03;114.95;;;107.00;;
16308;SDS011;8263;48.880;9.276;2023-04-06T13:04:30;115.15;;;107.32;;
16308;SDS011;8263;48.880;9.276;2023-04-06T13:06:58;117.95;;;109.97;;
16308;SDS011;8263;48.880;9.276;2023-04-06T13:09:25;114.30;;;106.68;;
16308;SDS011;8263;48.880;9.276;2023-04-06T13:11:51;114.82;;;107.13;;
16308;SDS011;8263;48.880;9.276;2023-04-06T13:14:17;115.75;;;107.88;;
16308;SDS011;8263;48.880;9.276;2023-04-06T13:16:44;113.80;;;106.20;;
16308;SDS011;8263;48.880;9.276;2023-04-06T13:19:11;115.65;;;107.95;;
16308;SDS011;8263;48.880;9.276;2023-04-06T13:21:38;113.93;;;106.22;;
16308;SDS011;8263;48.880;9.276;2023-04-06T13:24:07;112.78;;;105.15;;
16308;SDS011;8263;48.880;9.276;2023-04-06T13:26:34;113.05;;;105.35;;
16308;SDS011;8263;48.880;9.276;2023-04-06T13:29:01;114.05;;;106.25;;
16308;SDS011;8263;48.880;9.276;2023-04-06T13:31:27;112.60;;;105.10;;
16308;SDS011;8263;48.880;9.276;2023-04-06T13:33:54;112.32;;;104.80;;
16308;SDS011;8263;48.880;9.276;2023-04-06T13:36:24;114.18;;;106.47;;
16308;SDS011;8263;48.880;9.276;2023-04-06T13:38:51;113.30;;;105.47;;
16308;SDS011;8263;48.880;9.276;2023-04-06T13:41:21;112.07;;;104.57;;
16308;SDS011;8263;48.880;9.276;2023-04-06T13:43:47;113.50;;;105.78;;
16308;SDS011;8263;48.880;9.276;2023-04-06T13:46:14;112.90;;;105.38;;
16308;SDS011;8263;48.880;9.276;2023-04-06T13:48:41;110.25;;;102.85;;
16308;SDS011;8263;48.880;9.276;2023-04-06T13:51:08;113.00;;;105.20;;
16308;SDS011;8263;48.880;9.276;2023-04-06T13:53:35;111.55;;;104.05;;
16308;SDS011;8263;48.880;9.276;2023-04-06T13:56:01;110.72;;;103.38;;
16308;SDS011;8263;48.880;9.276;2023-04-06T13:58:29;110.25;;;102.88;;
16308;SDS011;8263;48.880;9.276;2023-04-06T14:01:01;111.43;;;104.05;;
16308;SDS011;8263;48.880;9.276;2023-04-06T14:03:27;107.53;;;100.38;;
16308;SDS011;8263;48.880;9.276;2023-04-06T14:05:54;111.43;;;103.97;;
16308;SDS011;8263;48.880;9.276;2023-04-06T14:08:21;111.45;;;103.70;;